Juneau, Wisconsin
Current Conditions -  °F | °C
As of 3:55 PM on Thursday 27 Nov 2014 (Local Time) from KUNU Reporting Station
Broken Clouds Broken Clouds  
Wind Chill: 15°   Ceiling: 2200
Heat Index: 15°   Visibility: 10mi
Dew Point:   Wind: 3mph
Humidity: 74%   Direction: 300°WNW
Pressure: 30.38"   Gusts: NA
Location:  43.41°N, 88.71°W
Report Text: KUNU 272155Z AUTO 30003KT 10SM BKN022 M10/M13 A3038 RMK AO2 T10961135
Loading
Personal Weather Stations






























Interactive Weather Map New forecast layout! Learn more

10-Day Weather Forecast

Advertisements
Track Severe Weather on mobile